sensor_id;sensor_type;location;lat;lon;timestamp;P1;durP1;ratioP1;P2;durP2;ratioP2
4244;SDS011;2136;48.502;9.194;2023-02-28T00:00:36;3.00;;;2.70;;
4244;SDS011;2136;48.502;9.194;2023-02-28T00:03:03;6.57;;;3.42;;
4244;SDS011;2136;48.502;9.194;2023-02-28T00:05:31;4.57;;;2.75;;
4244;SDS011;2136;48.502;9.194;2023-02-28T00:07:58;4.80;;;3.40;;
4244;SDS011;2136;48.502;9.194;2023-02-28T00:10:26;4.05;;;2.83;;
4244;SDS011;2136;48.502;9.194;2023-02-28T00:12:55;4.53;;;3.33;;
4244;SDS011;2136;48.502;9.194;2023-02-28T00:15:25;5.25;;;3.85;;
4244;SDS011;2136;48.502;9.194;2023-02-28T00:17:52;3.72;;;2.97;;
4244;SDS011;2136;48.502;9.194;2023-02-28T00:20:19;3.70;;;3.05;;
4244;SDS011;2136;48.502;9.194;2023-02-28T00:22:48;3.50;;;3.20;;
4244;SDS011;2136;48.502;9.194;2023-02-28T00:25:17;5.53;;;3.40;;
4244;SDS011;2136;48.502;9.194;2023-02-28T00:27:46;7.90;;;2.75;;
4244;SDS011;2136;48.502;9.194;2023-02-28T00:30:14;3.72;;;2.70;;
4244;SDS011;2136;48.502;9.194;2023-02-28T00:32:42;4.55;;;3.25;;
4244;SDS011;2136;48.502;9.194;2023-02-28T00:35:09;4.20;;;3.00;;
4244;SDS011;2136;48.502;9.194;2023-02-28T00:37:37;3.13;;;2.83;;
4244;SDS011;2136;48.502;9.194;2023-02-28T00:40:06;4.53;;;3.38;;
4244;SDS011;2136;48.502;9.194;2023-02-28T00:42:34;4.72;;;3.70;;
4244;SDS011;2136;48.502;9.194;2023-02-28T00:45:02;4.55;;;3.20;;
4244;SDS011;2136;48.502;9.194;2023-02-28T00:47:30;5.05;;;3.30;;
4244;SDS011;2136;48.502;9.194;2023-02-28T00:49:57;3.22;;;2.92;;
4244;SDS011;2136;48.502;9.194;2023-02-28T00:52:24;5.13;;;3.10;;
4244;SDS011;2136;48.502;9.194;2023-02-28T00:54:50;7.15;;;2.97;;
4244;SDS011;2136;48.502;9.194;2023-02-28T00:57:19;7.80;;;3.53;;
4244;SDS011;2136;48.502;9.194;2023-02-28T00:59:45;4.03;;;3.63;;
4244;SDS011;2136;48.502;9.194;2023-02-28T01:02:12;9.68;;;2.70;;
4244;SDS011;2136;48.502;9.194;2023-02-28T01:04:39;4.88;;;2.80;;
4244;SDS011;2136;48.502;9.194;2023-02-28T01:07:06;3.60;;;3.30;;
4244;SDS011;2136;48.502;9.194;2023-02-28T01:09:33;6.40;;;2.85;;
4244;SDS011;2136;48.502;9.194;2023-02-28T01:11:59;4.13;;;2.92;;
4244;SDS011;2136;48.502;9.194;2023-02-28T01:14:28;4.20;;;2.80;;
4244;SDS011;2136;48.502;9.194;2023-02-28T01:16:54;4.65;;;3.42;;
4244;SDS011;2136;48.502;9.194;2023-02-28T01:19:21;3.35;;;3.05;;
4244;SDS011;2136;48.502;9.194;2023-02-28T01:21:48;4.22;;;3.50;;
4244;SDS011;2136;48.502;9.194;2023-02-28T01:24:15;3.38;;;3.00;;
4244;SDS011;2136;48.502;9.194;2023-02-28T01:26:41;5.43;;;3.40;;
4244;SDS011;2136;48.502;9.194;2023-02-28T01:29:08;6.13;;;3.47;;
4244;SDS011;2136;48.502;9.194;2023-02-28T01:31:36;4.05;;;2.70;;
4244;SDS011;2136;48.502;9.194;2023-02-28T01:34:03;3.70;;;3.00;;
4244;SDS011;2136;48.502;9.194;2023-02-28T01:36:30;4.85;;;3.60;;
4244;SDS011;2136;48.502;9.194;2023-02-28T01:38:57;4.60;;;3.15;;
4244;SDS011;2136;48.502;9.194;2023-02-28T01:41:24;3.72;;;3.30;;
4244;SDS011;2136;48.502;9.194;2023-02-28T01:43:54;4.60;;;2.70;;
4244;SDS011;2136;48.502;9.194;2023-02-28T01:46:28;4.18;;;3.17;;
4244;SDS011;2136;48.502;9.194;2023-02-28T01:48:58;6.88;;;3.65;;
4244;SDS011;2136;48.502;9.194;2023-02-28T01:51:30;4.75;;;3.30;;
4244;SDS011;2136;48.502;9.194;2023-02-28T01:54:02;4.78;;;2.78;;
4244;SDS011;2136;48.502;9.194;2023-02-28T01:56:38;5.43;;;3.28;;
4244;SDS011;2136;48.502;9.194;2023-02-28T01:59:10;2.90;;;2.60;;
4244;SDS011;2136;48.502;9.194;2023-02-28T02:01:38;3.03;;;2.70;;
4244;SDS011;2136;48.502;9.194;2023-02-28T02:04:07;9.07;;;3.10;;
4244;SDS011;2136;48.502;9.194;2023-02-28T02:06:34;7.82;;;3.55;;
4244;SDS011;2136;48.502;9.194;2023-02-28T02:09:04;4.00;;;2.72;;
4244;SDS011;2136;48.502;9.194;2023-02-28T02:11:31;8.93;;;3.72;;
4244;SDS011;2136;48.502;9.194;2023-02-28T02:14:10;8.23;;;2.80;;
4244;SDS011;2136;48.502;9.194;2023-02-28T02:16:51;13.15;;;4.43;;
4244;SDS011;2136;48.502;9.194;2023-02-28T02:22:31;3.60;;;2.78;;
4244;SDS011;2136;48.502;9.194;2023-02-28T02:25:19;2.80;;;2.58;;
4244;SDS011;2136;48.502;9.194;2023-02-28T02:30:53;3.67;;;2.60;;
4244;SDS011;2136;48.502;9.194;2023-02-28T02:33:45;3.40;;;3.10;;
4244;SDS011;2136;48.502;9.194;2023-02-28T02:36:35;4.30;;;3.67;;
4244;SDS011;2136;48.502;9.194;2023-02-28T02:39:13;8.65;;;3.40;;
4244;SDS011;2136;48.502;9.194;2023-02-28T02:41:45;3.33;;;2.67;;
4244;SDS011;2136;48.502;9.194;2023-02-28T02:44:17;5.53;;;3.70;;
4244;SDS011;2136;48.502;9.194;2023-02-28T02:46:48;6.00;;;3.05;;
4244;SDS011;2136;48.502;9.194;2023-02-28T02:49:19;7.03;;;3.97;;
4244;SDS011;2136;48.502;9.194;2023-02-28T02:51:51;4.05;;;3.10;;
4244;SDS011;2136;48.502;9.194;2023-02-28T02:54:20;5.20;;;3.60;;
4244;SDS011;2136;48.502;9.194;2023-02-28T02:56:53;9.80;;;3.38;;
4244;SDS011;2136;48.502;9.194;2023-02-28T02:59:24;8.43;;;4.20;;
4244;SDS011;2136;48.502;9.194;2023-02-28T03:01:55;3.20;;;2.75;;
4244;SDS011;2136;48.502;9.194;2023-02-28T03:04:26;3.92;;;3.55;;
4244;SDS011;2136;48.502;9.194;2023-02-28T03:06:59;4.90;;;2.85;;
4244;SDS011;2136;48.502;9.194;2023-02-28T03:09:26;8.32;;;3.45;;
4244;SDS011;2136;48.502;9.194;2023-02-28T03:11:54;4.15;;;3.30;;
4244;SDS011;2136;48.502;9.194;2023-02-28T03:14:25;3.88;;;3.28;;
4244;SDS011;2136;48.502;9.194;2023-02-28T03:17:04;4.57;;;4.10;;
4244;SDS011;2136;48.502;9.194;2023-02-28T03:19:51;5.70;;;4.22;;
4244;SDS011;2136;48.502;9.194;2023-02-28T03:25:16;4.47;;;3.65;;
4244;SDS011;2136;48.502;9.194;2023-02-28T03:27:49;5.00;;;3.45;;
4244;SDS011;2136;48.502;9.194;2023-02-28T03:30:27;5.40;;;3.40;;
4244;SDS011;2136;48.502;9.194;2023-02-28T03:33:00;6.78;;;3.60;;
4244;SDS011;2136;48.502;9.194;2023-02-28T03:35:32;8.52;;;3.50;;
4244;SDS011;2136;48.502;9.194;2023-02-28T03:38:05;5.28;;;3.78;;
4244;SDS011;2136;48.502;9.194;2023-02-28T03:40:39;7.22;;;4.50;;
4244;SDS011;2136;48.502;9.194;2023-02-28T03:43:10;5.75;;;3.40;;
4244;SDS011;2136;48.502;9.194;2023-02-28T03:45:40;8.88;;;3.63;;
4244;SDS011;2136;48.502;9.194;2023-02-28T03:48:11;4.85;;;2.85;;
4244;SDS011;2136;48.502;9.194;2023-02-28T03:50:41;4.05;;;3.65;;
4244;SDS011;2136;48.502;9.194;2023-02-28T03:53:12;4.60;;;3.83;;
4244;SDS011;2136;48.502;9.194;2023-02-28T03:55:44;11.32;;;4.47;;
4244;SDS011;2136;48.502;9.194;2023-02-28T03:58:15;9.48;;;4.30;;
4244;SDS011;2136;48.502;9.194;2023-02-28T04:00:48;11.93;;;5.63;;
4244;SDS011;2136;48.502;9.194;2023-02-28T04:03:19;8.65;;;5.10;;
4244;SDS011;2136;48.502;9.194;2023-02-28T04:05:46;6.88;;;4.78;;
4244;SDS011;2136;48.502;9.194;2023-02-28T04:08:17;7.15;;;4.88;;
4244;SDS011;2136;48.502;9.194;2023-02-28T04:10:45;7.78;;;5.10;;
4244;SDS011;2136;48.502;9.194;2023-02-28T04:13:16;7.80;;;4.72;;
4244;SDS011;2136;48.502;9.194;2023-02-28T04:15:43;9.85;;;4.63;;
4244;SDS011;2136;48.502;9.194;2023-02-28T04:18:10;5.60;;;4.13;;
4244;SDS011;2136;48.502;9.194;2023-02-28T04:20:36;6.88;;;4.00;;
4244;SDS011;2136;48.502;9.194;2023-02-28T04:23:03;7.75;;;4.53;;
4244;SDS011;2136;48.502;9.194;2023-02-28T04:25:31;6.15;;;4.50;;
4244;SDS011;2136;48.502;9.194;2023-02-28T04:27:58;6.70;;;4.55;;
4244;SDS011;2136;48.502;9.194;2023-02-28T04:30:25;6.28;;;4.63;;
4244;SDS011;2136;48.502;9.194;2023-02-28T04:32:52;6.03;;;4.15;;
4244;SDS011;2136;48.502;9.194;2023-02-28T04:35:18;6.37;;;3.63;;
4244;SDS011;2136;48.502;9.194;2023-02-28T04:37:45;4.53;;;4.13;;
4244;SDS011;2136;48.502;9.194;2023-02-28T04:40:12;6.57;;;4.88;;
4244;SDS011;2136;48.502;9.194;2023-02-28T04:42:40;9.82;;;4.18;;
4244;SDS011;2136;48.502;9.194;2023-02-28T04:45:08;7.55;;;4.53;;
4244;SDS011;2136;48.502;9.194;2023-02-28T04:47:36;4.97;;;4.10;;
4244;SDS011;2136;48.502;9.194;2023-02-28T04:50:03;12.70;;;4.65;;
4244;SDS011;2136;48.502;9.194;2023-02-28T04:52:30;4.45;;;3.90;;
4244;SDS011;2136;48.502;9.194;2023-02-28T04:54:57;4.90;;;3.87;;
4244;SDS011;2136;48.502;9.194;2023-02-28T04:57:24;6.55;;;4.60;;
4244;SDS011;2136;48.502;9.194;2023-02-28T04:59:52;4.50;;;3.47;;
4244;SDS011;2136;48.502;9.194;2023-02-28T05:02:18;4.88;;;4.40;;
4244;SDS011;2136;48.502;9.194;2023-02-28T05:04:46;4.20;;;3.85;;
4244;SDS011;2136;48.502;9.194;2023-02-28T05:07:13;10.52;;;4.90;;
4244;SDS011;2136;48.502;9.194;2023-02-28T05:09:39;7.05;;;4.28;;
4244;SDS011;2136;48.502;9.194;2023-02-28T05:12:06;6.88;;;4.30;;
4244;SDS011;2136;48.502;9.194;2023-02-28T05:14:34;5.97;;;4.68;;
4244;SDS011;2136;48.502;9.194;2023-02-28T05:17:03;5.05;;;4.35;;
4244;SDS011;2136;48.502;9.194;2023-02-28T05:19:29;9.25;;;4.20;;
4244;SDS011;2136;48.502;9.194;2023-02-28T05:21:56;5.10;;;4.35;;
4244;SDS011;2136;48.502;9.194;2023-02-28T05:24:24;16.73;;;5.30;;
4244;SDS011;2136;48.502;9.194;2023-02-28T05:26:52;5.35;;;4.57;;
4244;SDS011;2136;48.502;9.194;2023-02-28T05:29:19;6.18;;;4.50;;
4244;SDS011;2136;48.502;9.194;2023-02-28T05:31:46;6.60;;;4.50;;
4244;SDS011;2136;48.502;9.194;2023-02-28T05:34:15;6.55;;;4.22;;
4244;SDS011;2136;48.502;9.194;2023-02-28T05:36:42;5.72;;;4.47;;
4244;SDS011;2136;48.502;9.194;2023-02-28T05:39:09;12.50;;;4.93;;
4244;SDS011;2136;48.502;9.194;2023-02-28T05:41:38;7.85;;;5.65;;
4244;SDS011;2136;48.502;9.194;2023-02-28T05:44:06;5.90;;;4.55;;
4244;SDS011;2136;48.502;9.194;2023-02-28T05:46:33;5.18;;;4.68;;
4244;SDS011;2136;48.502;9.194;2023-02-28T05:49:00;7.28;;;5.55;;
4244;SDS011;2136;48.502;9.194;2023-02-28T05:51:28;5.75;;;5.13;;
4244;SDS011;2136;48.502;9.194;2023-02-28T05:53:58;9.85;;;4.85;;
4244;SDS011;2136;48.502;9.194;2023-02-28T05:56:26;7.82;;;4.75;;
4244;SDS011;2136;48.502;9.194;2023-02-28T05:58:53;7.85;;;5.65;;
4244;SDS011;2136;48.502;9.194;2023-02-28T06:01:21;6.38;;;5.15;;
4244;SDS011;2136;48.502;9.194;2023-02-28T06:03:50;6.47;;;5.00;;
4244;SDS011;2136;48.502;9.194;2023-02-28T06:06:17;5.72;;;5.05;;
4244;SDS011;2136;48.502;9.194;2023-02-28T06:08:45;7.32;;;5.05;;
4244;SDS011;2136;48.502;9.194;2023-02-28T06:11:12;8.32;;;6.05;;
4244;SDS011;2136;48.502;9.194;2023-02-28T06:13:39;6.85;;;5.10;;
4244;SDS011;2136;48.502;9.194;2023-02-28T06:16:06;7.95;;;5.53;;
4244;SDS011;2136;48.502;9.194;2023-02-28T06:18:34;7.78;;;5.03;;
4244;SDS011;2136;48.502;9.194;2023-02-28T06:21:00;8.43;;;5.78;;
4244;SDS011;2136;48.502;9.194;2023-02-28T06:23:27;9.05;;;6.13;;
4244;SDS011;2136;48.502;9.194;2023-02-28T06:25:56;11.05;;;6.75;;
4244;SDS011;2136;48.502;9.194;2023-02-28T06:28:23;8.95;;;6.13;;
4244;SDS011;2136;48.502;9.194;2023-02-28T06:30:51;9.63;;;6.35;;
4244;SDS011;2136;48.502;9.194;2023-02-28T06:33:17;14.07;;;6.88;;
4244;SDS011;2136;48.502;9.194;2023-02-28T06:35:46;11.70;;;6.72;;
4244;SDS011;2136;48.502;9.194;2023-02-28T06:38:13;9.95;;;6.80;;
4244;SDS011;2136;48.502;9.194;2023-02-28T06:40:40;8.50;;;6.60;;
4244;SDS011;2136;48.502;9.194;2023-02-28T06:43:08;7.57;;;6.18;;
4244;SDS011;2136;48.502;9.194;2023-02-28T06:45:40;6.88;;;5.80;;
4244;SDS011;2136;48.502;9.194;2023-02-28T06:48:08;16.75;;;6.47;;
4244;SDS011;2136;48.502;9.194;2023-02-28T06:50:35;10.80;;;6.38;;
4244;SDS011;2136;48.502;9.194;2023-02-28T06:53:02;8.70;;;5.95;;
4244;SDS011;2136;48.502;9.194;2023-02-28T06:55:29;10.70;;;6.00;;
4244;SDS011;2136;48.502;9.194;2023-02-28T06:57:56;7.50;;;6.15;;
4244;SDS011;2136;48.502;9.194;2023-02-28T07:00:25;8.05;;;5.70;;
4244;SDS011;2136;48.502;9.194;2023-02-28T07:02:52;9.02;;;6.32;;
4244;SDS011;2136;48.502;9.194;2023-02-28T07:05:20;11.38;;;6.38;;
4244;SDS011;2136;48.502;9.194;2023-02-28T07:07:46;8.50;;;6.50;;
4244;SDS011;2136;48.502;9.194;2023-02-28T07:10:13;11.73;;;7.33;;
4244;SDS011;2136;48.502;9.194;2023-02-28T07:12:41;14.15;;;8.13;;
4244;SDS011;2136;48.502;9.194;2023-02-28T07:15:09;12.80;;;7.67;;
4244;SDS011;2136;48.502;9.194;2023-02-28T07:17:38;10.38;;;7.80;;
4244;SDS011;2136;48.502;9.194;2023-02-28T07:20:05;10.02;;;7.63;;
4244;SDS011;2136;48.502;9.194;2023-02-28T07:22:33;10.55;;;8.18;;
4244;SDS011;2136;48.502;9.194;2023-02-28T07:25:00;13.85;;;8.73;;
4244;SDS011;2136;48.502;9.194;2023-02-28T07:27:27;11.50;;;7.38;;
4244;SDS011;2136;48.502;9.194;2023-02-28T07:29:53;12.55;;;7.85;;
4244;SDS011;2136;48.502;9.194;2023-02-28T07:32:20;10.82;;;7.85;;
4244;SDS011;2136;48.502;9.194;2023-02-28T07:34:49;14.65;;;8.20;;
4244;SDS011;2136;48.502;9.194;2023-02-28T07:37:16;14.80;;;7.80;;
4244;SDS011;2136;48.502;9.194;2023-02-28T07:39:42;12.15;;;6.93;;
4244;SDS011;2136;48.502;9.194;2023-02-28T07:42:09;11.15;;;7.43;;
4244;SDS011;2136;48.502;9.194;2023-02-28T07:44:37;8.65;;;7.18;;
4244;SDS011;2136;48.502;9.194;2023-02-28T07:47:05;11.45;;;8.00;;
4244;SDS011;2136;48.502;9.194;2023-02-28T07:49:34;9.63;;;7.45;;
4244;SDS011;2136;48.502;9.194;2023-02-28T07:52:02;8.98;;;7.63;;
4244;SDS011;2136;48.502;9.194;2023-02-28T07:54:29;11.57;;;7.28;;
4244;SDS011;2136;48.502;9.194;2023-02-28T07:56:56;15.25;;;8.20;;
4244;SDS011;2136;48.502;9.194;2023-02-28T07:59:23;10.70;;;7.30;;
4244;SDS011;2136;48.502;9.194;2023-02-28T08:01:50;10.07;;;8.13;;
4244;SDS011;2136;48.502;9.194;2023-02-28T08:04:17;11.88;;;7.05;;
4244;SDS011;2136;48.502;9.194;2023-02-28T08:06:44;11.73;;;7.40;;
4244;SDS011;2136;48.502;9.194;2023-02-28T08:09:12;12.45;;;7.72;;
4244;SDS011;2136;48.502;9.194;2023-02-28T08:11:39;8.55;;;7.43;;
4244;SDS011;2136;48.502;9.194;2023-02-28T08:14:06;9.18;;;7.47;;
4244;SDS011;2136;48.502;9.194;2023-02-28T08:16:33;12.20;;;7.35;;
4244;SDS011;2136;48.502;9.194;2023-02-28T08:18:59;11.52;;;7.88;;
4244;SDS011;2136;48.502;9.194;2023-02-28T08:21:26;11.52;;;6.82;;
4244;SDS011;2136;48.502;9.194;2023-02-28T08:23:53;9.93;;;7.90;;
4244;SDS011;2136;48.502;9.194;2023-02-28T08:26:23;11.70;;;8.25;;
4244;SDS011;2136;48.502;9.194;2023-02-28T08:28:49;12.15;;;9.02;;
4244;SDS011;2136;48.502;9.194;2023-02-28T08:31:17;12.18;;;8.07;;
4244;SDS011;2136;48.502;9.194;2023-02-28T08:33:45;10.43;;;7.53;;
4244;SDS011;2136;48.502;9.194;2023-02-28T08:36:13;12.77;;;8.57;;
4244;SDS011;2136;48.502;9.194;2023-02-28T08:38:40;12.18;;;7.60;;
4244;SDS011;2136;48.502;9.194;2023-02-28T08:41:08;14.43;;;8.02;;
4244;SDS011;2136;48.502;9.194;2023-02-28T08:43:38;12.15;;;9.02;;
4244;SDS011;2136;48.502;9.194;2023-02-28T08:46:05;9.80;;;7.72;;
4244;SDS011;2136;48.502;9.194;2023-02-28T08:48:34;11.00;;;7.63;;
4244;SDS011;2136;48.502;9.194;2023-02-28T08:51:03;9.65;;;8.00;;
4244;SDS011;2136;48.502;9.194;2023-02-28T08:53:32;10.00;;;7.35;;
4244;SDS011;2136;48.502;9.194;2023-02-28T08:55:59;15.75;;;8.02;;
4244;SDS011;2136;48.502;9.194;2023-02-28T08:58:27;11.93;;;8.10;;
4244;SDS011;2136;48.502;9.194;2023-02-28T09:00:56;10.32;;;7.05;;
4244;SDS011;2136;48.502;9.194;2023-02-28T09:03:23;10.00;;;8.15;;
4244;SDS011;2136;48.502;9.194;2023-02-28T09:05:53;11.05;;;8.35;;
4244;SDS011;2136;48.502;9.194;2023-02-28T09:08:21;14.60;;;9.37;;
4244;SDS011;2136;48.502;9.194;2023-02-28T09:10:48;13.50;;;8.07;;
4244;SDS011;2136;48.502;9.194;2023-02-28T09:13:16;17.50;;;7.75;;
4244;SDS011;2136;48.502;9.194;2023-02-28T09:15:43;10.00;;;7.90;;
4244;SDS011;2136;48.502;9.194;2023-02-28T09:18:11;12.30;;;8.10;;
4244;SDS011;2136;48.502;9.194;2023-02-28T09:20:39;11.77;;;8.13;;
4244;SDS011;2136;48.502;9.194;2023-02-28T09:23:06;13.85;;;8.48;;
4244;SDS011;2136;48.502;9.194;2023-02-28T09:25:33;11.40;;;8.18;;
4244;SDS011;2136;48.502;9.194;2023-02-28T09:28:01;12.60;;;8.70;;
4244;SDS011;2136;48.502;9.194;2023-02-28T09:30:28;9.88;;;8.05;;
4244;SDS011;2136;48.502;9.194;2023-02-28T09:32:55;18.10;;;8.37;;
4244;SDS011;2136;48.502;9.194;2023-02-28T09:35:23;10.63;;;7.90;;
4244;SDS011;2136;48.502;9.194;2023-02-28T09:37:51;12.13;;;8.90;;
4244;SDS011;2136;48.502;9.194;2023-02-28T09:40:19;13.00;;;6.67;;
4244;SDS011;2136;48.502;9.194;2023-02-28T09:42:49;13.17;;;9.43;;
4244;SDS011;2136;48.502;9.194;2023-02-28T09:45:19;14.37;;;9.60;;
4244;SDS011;2136;48.502;9.194;2023-02-28T09:47:50;15.90;;;8.80;;
4244;SDS011;2136;48.502;9.194;2023-02-28T09:50:22;10.82;;;8.20;;
4244;SDS011;2136;48.502;9.194;2023-02-28T09:52:59;16.17;;;10.20;;
4244;SDS011;2136;48.502;9.194;2023-02-28T09:55:30;20.77;;;9.40;;
4244;SDS011;2136;48.502;9.194;2023-02-28T09:58:01;13.80;;;8.60;;
4244;SDS011;2136;48.502;9.194;2023-02-28T10:00:29;12.73;;;8.23;;
4244;SDS011;2136;48.502;9.194;2023-02-28T10:03:08;14.57;;;9.20;;
4244;SDS011;2136;48.502;9.194;2023-02-28T10:05:54;17.30;;;10.05;;
4244;SDS011;2136;48.502;9.194;2023-02-28T10:08:29;13.03;;;8.30;;
4244;SDS011;2136;48.502;9.194;2023-02-28T10:11:00;16.77;;;9.83;;
4244;SDS011;2136;48.502;9.194;2023-02-28T10:13:32;10.53;;;8.30;;
4244;SDS011;2136;48.502;9.194;2023-02-28T10:16:02;12.13;;;8.37;;
4244;SDS011;2136;48.502;9.194;2023-02-28T10:18:38;14.57;;;9.53;;
4244;SDS011;2136;48.502;9.194;2023-02-28T10:21:14;11.70;;;8.77;;
4244;SDS011;2136;48.502;9.194;2023-02-28T10:23:45;11.00;;;8.73;;
4244;SDS011;2136;48.502;9.194;2023-02-28T10:26:14;16.43;;;10.00;;
4244;SDS011;2136;48.502;9.194;2023-02-28T10:28:43;11.13;;;8.37;;
4244;SDS011;2136;48.502;9.194;2023-02-28T10:31:11;13.30;;;9.77;;
4244;SDS011;2136;48.502;9.194;2023-02-28T10:33:42;14.00;;;9.27;;
4244;SDS011;2136;48.502;9.194;2023-02-28T10:36:10;12.23;;;9.33;;
4244;SDS011;2136;48.502;9.194;2023-02-28T10:38:43;9.47;;;8.47;;
4244;SDS011;2136;48.502;9.194;2023-02-28T10:41:11;14.77;;;9.03;;
4244;SDS011;2136;48.502;9.194;2023-02-28T10:43:40;18.57;;;10.77;;
4244;SDS011;2136;48.502;9.194;2023-02-28T10:46:11;17.70;;;10.50;;
4244;SDS011;2136;48.502;9.194;2023-02-28T10:49:01;19.53;;;9.50;;
4244;SDS011;2136;48.502;9.194;2023-02-28T10:51:37;12.30;;;9.03;;
4244;SDS011;2136;48.502;9.194;2023-02-28T10:54:06;15.67;;;9.93;;
4244;SDS011;2136;48.502;9.194;2023-02-28T10:56:42;15.10;;;9.23;;
4244;SDS011;2136;48.502;9.194;2023-02-28T10:59:22;14.80;;;8.63;;
4244;SDS011;2136;48.502;9.194;2023-02-28T11:01:55;12.90;;;8.63;;
4244;SDS011;2136;48.502;9.194;2023-02-28T11:04:32;15.63;;;8.83;;
4244;SDS011;2136;48.502;9.194;2023-02-28T11:07:03;10.70;;;7.30;;
4244;SDS011;2136;48.502;9.194;2023-02-28T11:09:33;17.63;;;7.60;;
4244;SDS011;2136;48.502;9.194;2023-02-28T11:12:01;13.27;;;9.33;;
4244;SDS011;2136;48.502;9.194;2023-02-28T11:14:31;10.13;;;7.83;;
4244;SDS011;2136;48.502;9.194;2023-02-28T11:17:11;13.00;;;8.37;;
4244;SDS011;2136;48.502;9.194;2023-02-28T11:19:44;14.93;;;8.43;;
4244;SDS011;2136;48.502;9.194;2023-02-28T11:22:17;12.87;;;8.60;;
4244;SDS011;2136;48.502;9.194;2023-02-28T11:24:47;7.90;;;7.10;;
4244;SDS011;2136;48.502;9.194;2023-02-28T11:30:29;13.40;;;7.97;;
4244;SDS011;2136;48.502;9.194;2023-02-28T11:32:59;13.10;;;8.20;;
4244;SDS011;2136;48.502;9.194;2023-02-28T11:35:27;8.87;;;7.47;;
4244;SDS011;2136;48.502;9.194;2023-02-28T11:37:58;10.43;;;7.97;;
4244;SDS011;2136;48.502;9.194;2023-02-28T11:40:28;9.03;;;7.23;;
4244;SDS011;2136;48.502;9.194;2023-02-28T11:43:03;12.57;;;8.20;;
4244;SDS011;2136;48.502;9.194;2023-02-28T11:45:45;12.43;;;8.70;;
4244;SDS011;2136;48.502;9.194;2023-02-28T11:48:24;12.00;;;8.53;;
4244;SDS011;2136;48.502;9.194;2023-02-28T11:50:58;8.63;;;6.57;;
4244;SDS011;2136;48.502;9.194;2023-02-28T11:53:39;10.80;;;8.63;;
4244;SDS011;2136;48.502;9.194;2023-02-28T11:56:17;10.57;;;8.70;;
4244;SDS011;2136;48.502;9.194;2023-02-28T11:58:51;12.30;;;8.77;;
4244;SDS011;2136;48.502;9.194;2023-02-28T12:01:36;12.33;;;8.20;;
4244;SDS011;2136;48.502;9.194;2023-02-28T12:04:23;12.63;;;8.30;;
4244;SDS011;2136;48.502;9.194;2023-02-28T12:06:55;11.13;;;7.67;;
4244;SDS011;2136;48.502;9.194;2023-02-28T12:12:23;14.53;;;9.10;;
4244;SDS011;2136;48.502;9.194;2023-02-28T12:18:02;10.60;;;8.53;;
4244;SDS011;2136;48.502;9.194;2023-02-28T12:20:45;9.03;;;7.20;;
4244;SDS011;2136;48.502;9.194;2023-02-28T12:23:22;16.20;;;10.33;;
4244;SDS011;2136;48.502;9.194;2023-02-28T12:26:06;11.00;;;8.37;;
4244;SDS011;2136;48.502;9.194;2023-02-28T12:28:40;12.23;;;8.50;;
4244;SDS011;2136;48.502;9.194;2023-02-28T12:31:10;13.10;;;9.10;;
4244;SDS011;2136;48.502;9.194;2023-02-28T12:33:44;14.73;;;9.83;;
4244;SDS011;2136;48.502;9.194;2023-02-28T12:36:14;10.97;;;7.83;;
4244;SDS011;2136;48.502;9.194;2023-02-28T12:38:44;9.70;;;8.20;;
4244;SDS011;2136;48.502;9.194;2023-02-28T12:41:16;12.70;;;8.90;;
4244;SDS011;2136;48.502;9.194;2023-02-28T12:43:47;21.07;;;8.70;;
4244;SDS011;2136;48.502;9.194;2023-02-28T12:46:19;13.03;;;8.37;;
4244;SDS011;2136;48.502;9.194;2023-02-28T12:48:50;9.83;;;8.90;;
4244;SDS011;2136;48.502;9.194;2023-02-28T12:51:21;14.50;;;9.30;;
4244;SDS011;2136;48.502;9.194;2023-02-28T12:53:53;10.57;;;7.60;;
4244;SDS011;2136;48.502;9.194;2023-02-28T12:56:31;11.80;;;9.60;;
4244;SDS011;2136;48.502;9.194;2023-02-28T12:59:03;9.93;;;7.87;;
4244;SDS011;2136;48.502;9.194;2023-02-28T13:01:49;14.97;;;8.27;;
4244;SDS011;2136;48.502;9.194;2023-02-28T13:04:42;12.60;;;8.80;;
4244;SDS011;2136;48.502;9.194;2023-02-28T13:07:39;9.03;;;7.67;;
4244;SDS011;2136;48.502;9.194;2023-02-28T13:10:39;11.97;;;8.47;;
4244;SDS011;2136;48.502;9.194;2023-02-28T13:13:11;11.77;;;9.40;;
4244;SDS011;2136;48.502;9.194;2023-02-28T13:15:42;11.03;;;8.53;;
4244;SDS011;2136;48.502;9.194;2023-02-28T13:18:28;8.57;;;7.77;;
4244;SDS011;2136;48.502;9.194;2023-02-28T13:20:57;11.37;;;9.07;;
4244;SDS011;2136;48.502;9.194;2023-02-28T13:23:40;13.13;;;8.20;;
4244;SDS011;2136;48.502;9.194;2023-02-28T13:26:24;9.63;;;8.53;;
4244;SDS011;2136;48.502;9.194;2023-02-28T13:29:31;12.03;;;9.10;;
4244;SDS011;2136;48.502;9.194;2023-02-28T13:38:01;17.00;;;11.23;;
4244;SDS011;2136;48.502;9.194;2023-02-28T13:40:42;16.73;;;9.98;;
4244;SDS011;2136;48.502;9.194;2023-02-28T13:43:09;12.90;;;7.83;;
4244;SDS011;2136;48.502;9.194;2023-02-28T13:45:37;10.80;;;8.50;;
4244;SDS011;2136;48.502;9.194;2023-02-28T13:48:16;10.83;;;8.20;;
4244;SDS011;2136;48.502;9.194;2023-02-28T13:50:45;9.60;;;7.40;;
4244;SDS011;2136;48.502;9.194;2023-02-28T13:53:26;9.90;;;6.97;;
4244;SDS011;2136;48.502;9.194;2023-02-28T13:56:25;12.83;;;7.60;;
4244;SDS011;2136;48.502;9.194;2023-02-28T13:59:01;9.93;;;7.27;;
4244;SDS011;2136;48.502;9.194;2023-02-28T14:01:47;9.80;;;7.20;;
4244;SDS011;2136;48.502;9.194;2023-02-28T14:04:33;12.10;;;8.47;;
4244;SDS011;2136;48.502;9.194;2023-02-28T14:07:25;9.50;;;7.77;;
4244;SDS011;2136;48.502;9.194;2023-02-28T14:09:59;9.43;;;7.70;;
4244;SDS011;2136;48.502;9.194;2023-02-28T14:18:17;10.77;;;7.43;;
4244;SDS011;2136;48.502;9.194;2023-02-28T14:21:01;11.90;;;7.67;;
4244;SDS011;2136;48.502;9.194;2023-02-28T14:23:50;9.37;;;7.27;;
4244;SDS011;2136;48.502;9.194;2023-02-28T14:29:44;7.70;;;5.80;;
4244;SDS011;2136;48.502;9.194;2023-02-28T14:32:40;9.50;;;6.80;;
4244;SDS011;2136;48.502;9.194;2023-02-28T14:35:16;13.37;;;7.70;;
4244;SDS011;2136;48.502;9.194;2023-02-28T14:37:53;10.20;;;7.77;;
4244;SDS011;2136;48.502;9.194;2023-02-28T14:40:21;10.47;;;8.20;;
4244;SDS011;2136;48.502;9.194;2023-02-28T14:42:54;10.37;;;7.73;;
4244;SDS011;2136;48.502;9.194;2023-02-28T14:45:22;8.27;;;7.47;;
4244;SDS011;2136;48.502;9.194;2023-02-28T14:47:50;11.33;;;8.47;;
4244;SDS011;2136;48.502;9.194;2023-02-28T14:50:19;9.07;;;7.67;;
4244;SDS011;2136;48.502;9.194;2023-02-28T14:52:50;12.40;;;7.43;;
4244;SDS011;2136;48.502;9.194;2023-02-28T14:55:27;12.23;;;8.33;;
4244;SDS011;2136;48.502;9.194;2023-02-28T14:57:57;11.20;;;7.50;;
4244;SDS011;2136;48.502;9.194;2023-02-28T15:00:28;10.03;;;7.20;;
4244;SDS011;2136;48.502;9.194;2023-02-28T15:02:57;11.83;;;7.00;;
4244;SDS011;2136;48.502;9.194;2023-02-28T15:05:28;12.63;;;8.70;;
4244;SDS011;2136;48.502;9.194;2023-02-28T15:08:09;12.77;;;8.33;;
4244;SDS011;2136;48.502;9.194;2023-02-28T15:10:38;10.40;;;7.10;;
4244;SDS011;2136;48.502;9.194;2023-02-28T15:13:07;11.67;;;8.20;;
4244;SDS011;2136;48.502;9.194;2023-02-28T15:15:48;9.87;;;7.27;;
4244;SDS011;2136;48.502;9.194;2023-02-28T15:18:22;10.83;;;7.77;;
4244;SDS011;2136;48.502;9.194;2023-02-28T15:20:57;9.80;;;7.73;;
4244;SDS011;2136;48.502;9.194;2023-02-28T15:23:27;9.63;;;8.07;;
4244;SDS011;2136;48.502;9.194;2023-02-28T15:25:54;10.93;;;8.13;;
4244;SDS011;2136;48.502;9.194;2023-02-28T15:28:22;12.90;;;7.80;;
4244;SDS011;2136;48.502;9.194;2023-02-28T15:30:54;12.90;;;9.10;;
4244;SDS011;2136;48.502;9.194;2023-02-28T15:33:23;10.90;;;7.73;;
4244;SDS011;2136;48.502;9.194;2023-02-28T15:35:51;11.10;;;8.60;;
4244;SDS011;2136;48.502;9.194;2023-02-28T15:38:33;11.27;;;7.70;;
4244;SDS011;2136;48.502;9.194;2023-02-28T15:41:01;11.47;;;7.97;;
4244;SDS011;2136;48.502;9.194;2023-02-28T15:43:33;9.13;;;7.30;;
4244;SDS011;2136;48.502;9.194;2023-02-28T15:46:01;9.30;;;7.50;;
4244;SDS011;2136;48.502;9.194;2023-02-28T15:48:29;10.10;;;7.93;;
4244;SDS011;2136;48.502;9.194;2023-02-28T15:51:01;10.20;;;8.57;;
4244;SDS011;2136;48.502;9.194;2023-02-28T15:53:33;13.43;;;7.90;;
4244;SDS011;2136;48.502;9.194;2023-02-28T15:56:03;12.73;;;8.17;;
4244;SDS011;2136;48.502;9.194;2023-02-28T15:58:32;11.00;;;7.63;;
4244;SDS011;2136;48.502;9.194;2023-02-28T16:01:04;13.67;;;8.60;;
4244;SDS011;2136;48.502;9.194;2023-02-28T16:03:43;11.33;;;8.03;;